createdAt,value
2023-01-23T00:01:37.208Z,81.62
2023-01-23T00:04:05.888Z,80.16
2023-01-23T00:06:34.031Z,81.39
2023-01-23T00:09:01.754Z,80.86
2023-01-23T00:11:31.048Z,80.64
2023-01-23T00:14:00.157Z,81.07
2023-01-23T00:16:30.001Z,80.91
2023-01-23T00:18:58.963Z,80.84
2023-01-23T00:21:28.856Z,81.60
2023-01-23T00:23:58.436Z,80.85
2023-01-23T00:26:28.810Z,81.13
2023-01-23T00:28:56.926Z,81.27
2023-01-23T00:31:27.471Z,81.70
2023-01-23T00:33:58.707Z,81.55
2023-01-23T00:36:32.814Z,81.86
2023-01-23T00:39:00.978Z,81.67
2023-01-23T00:41:28.805Z,81.95
2023-01-23T00:43:56.473Z,81.72
2023-01-23T00:46:24.885Z,81.26
2023-01-23T00:48:52.704Z,81.57
2023-01-23T00:51:20.486Z,81.80
2023-01-23T00:53:49.197Z,81.20
2023-01-23T00:56:16.971Z,81.37
2023-01-23T00:58:45.398Z,81.11
2023-01-23T01:01:15.447Z,81.51
2023-01-23T01:03:44.591Z,81.65
2023-01-23T01:06:12.897Z,81.48
2023-01-23T01:08:41.186Z,81.20
2023-01-23T01:11:08.879Z,81.63
2023-01-23T01:13:37.007Z,81.75
2023-01-23T01:16:05.487Z,81.56
2023-01-23T01:18:33.727Z,81.48
2023-01-23T01:21:01.444Z,82.20
2023-01-23T01:23:29.463Z,82.61
2023-01-23T01:26:01.216Z,82.12
2023-01-23T01:28:33.231Z,81.69
2023-01-23T01:31:08.753Z,81.76
2023-01-23T01:33:38.943Z,80.47
2023-01-23T01:36:11.466Z,80.50
2023-01-23T01:38:39.962Z,80.76
2023-01-23T01:41:09.242Z,79.07
2023-01-23T01:43:37.310Z,79.03
2023-01-23T01:46:14.412Z,80.19
2023-01-23T01:48:57.203Z,79.46
2023-01-23T01:51:31.199Z,79.68
2023-01-23T01:54:02.287Z,79.55
2023-01-23T01:56:34.591Z,79.93
2023-01-23T01:59:05.833Z,79.81
2023-01-23T02:01:34.809Z,79.59
2023-01-23T02:04:04.316Z,79.56
2023-01-23T02:06:32.409Z,80.27
2023-01-23T02:09:24.123Z,80.47
2023-01-23T02:11:52.339Z,79.96
2023-01-23T02:14:20.977Z,80.52
2023-01-23T02:16:50.544Z,80.51
2023-01-23T02:19:40.699Z,80.56
2023-01-23T02:22:38.451Z,81.66
2023-01-23T02:25:18.202Z,81.08
2023-01-23T02:27:46.354Z,81.06
2023-01-23T02:30:16.066Z,81.27
2023-01-23T02:32:44.055Z,80.99
2023-01-23T02:35:28.083Z,81.41
2023-01-23T02:38:03.236Z,81.16
2023-01-23T02:40:37.229Z,81.50
2023-01-23T02:43:07.547Z,81.38
2023-01-23T02:45:36.242Z,81.32
2023-01-23T02:48:06.161Z,82.18
2023-01-23T02:50:34.412Z,81.46
2023-01-23T02:53:02.772Z,82.27
2023-01-23T02:55:31.700Z,81.74
2023-01-23T02:58:20.551Z,81.35
2023-01-23T03:00:49.578Z,81.98
2023-01-23T03:03:17.313Z,81.71
2023-01-23T03:05:46.692Z,81.96
2023-01-23T03:08:14.828Z,82.18
2023-01-23T03:10:43.162Z,81.54
2023-01-23T03:13:12.144Z,81.99
2023-01-23T03:15:42.195Z,81.61
2023-01-23T03:18:09.962Z,81.46
2023-01-23T03:20:41.803Z,81.46
2023-01-23T03:23:09.796Z,81.49
2023-01-23T03:25:37.427Z,81.24
2023-01-23T03:28:25.439Z,82.24
2023-01-23T03:30:53.468Z,82.02
2023-01-23T03:33:21.200Z,81.27
2023-01-23T03:35:50.066Z,81.21
2023-01-23T03:38:19.370Z,81.25
2023-01-23T03:41:09.091Z,82.42
2023-01-23T03:43:37.139Z,81.85
2023-01-23T03:46:05.914Z,82.13
2023-01-23T03:48:33.821Z,82.12
2023-01-23T03:51:02.101Z,82.51
2023-01-23T03:53:31.845Z,81.86
2023-01-23T03:56:00.936Z,81.69
2023-01-23T03:58:30.843Z,82.20
2023-01-23T04:00:58.555Z,81.79
2023-01-23T04:03:27.977Z,81.65
2023-01-23T04:05:57.684Z,81.27
2023-01-23T04:08:25.880Z,81.17
2023-01-23T04:11:01.939Z,81.64
2023-01-23T04:13:29.765Z,81.38
2023-01-23T04:15:59.439Z,81.84
2023-01-23T04:18:28.210Z,82.36
2023-01-23T04:20:56.328Z,82.31
2023-01-23T04:23:25.939Z,82.82
2023-01-23T04:25:54.699Z,82.59
2023-01-23T04:28:22.909Z,82.61
2023-01-23T04:30:52.092Z,82.37
2023-01-23T04:33:21.013Z,82.64
2023-01-23T04:35:58.274Z,82.85
2023-01-23T04:38:29.050Z,82.42
2023-01-23T04:40:57.137Z,83.03
2023-01-23T04:43:25.407Z,82.86
2023-01-23T04:45:55.256Z,82.65
2023-01-23T04:48:25.906Z,82.40
2023-01-23T04:50:54.511Z,82.27
2023-01-23T04:53:22.266Z,82.07
2023-01-23T04:55:50.218Z,82.31
2023-01-23T04:58:19.961Z,81.90
2023-01-23T05:00:48.298Z,81.89
2023-01-23T05:03:17.483Z,82.66
2023-01-23T05:05:47.914Z,82.23
2023-01-23T05:08:15.727Z,81.96
2023-01-23T05:10:45.803Z,82.48
2023-01-23T05:13:14.543Z,82.58
2023-01-23T05:15:42.352Z,82.45
2023-01-23T05:18:10.667Z,82.61
2023-01-23T05:20:39.059Z,82.12
2023-01-23T05:23:06.739Z,82.70
2023-01-23T05:25:34.869Z,82.24
2023-01-23T05:28:02.845Z,82.39
2023-01-23T05:30:31.519Z,82.80
2023-01-23T05:33:00.713Z,82.53
2023-01-23T05:35:28.950Z,82.23
2023-01-23T05:37:56.765Z,82.16
2023-01-23T05:40:25.648Z,81.51
2023-01-23T05:42:54.826Z,81.94
2023-01-23T05:45:24.570Z,81.72
2023-01-23T05:47:55.339Z,82.00
2023-01-23T05:50:24.844Z,82.11
2023-01-23T05:52:53.906Z,82.43
2023-01-23T05:55:22.279Z,82.54
2023-01-23T05:57:51.030Z,82.46
2023-01-23T06:00:21.413Z,81.95
2023-01-23T06:02:50.281Z,82.59
2023-01-23T06:05:20.944Z,81.33
2023-01-23T06:07:51.880Z,81.29
2023-01-23T06:10:20.215Z,81.05
2023-01-23T06:12:47.996Z,82.66
2023-01-23T06:15:15.982Z,82.54
2023-01-23T06:17:44.625Z,83.30
2023-01-23T06:20:14.216Z,83.30
2023-01-23T06:22:42.576Z,82.82
2023-01-23T06:25:11.166Z,82.40
2023-01-23T06:27:38.992Z,81.96
2023-01-23T06:30:08.404Z,81.60
2023-01-23T06:32:41.079Z,81.94
2023-01-23T06:35:09.532Z,81.97
2023-01-23T06:37:37.709Z,81.77
2023-01-23T06:40:06.476Z,82.56
2023-01-23T06:42:35.577Z,81.58
2023-01-23T06:45:03.333Z,81.78
2023-01-23T06:47:31.609Z,81.65
2023-01-23T06:50:02.144Z,81.75
2023-01-23T06:52:31.082Z,81.20
2023-01-23T06:54:59.074Z,80.91
2023-01-23T06:57:27.663Z,81.79
2023-01-23T06:59:55.336Z,81.78
2023-01-23T07:02:23.428Z,81.96
2023-01-23T07:04:52.273Z,82.71
2023-01-23T07:07:20.874Z,82.19
2023-01-23T07:09:49.324Z,81.35
2023-01-23T07:12:17.010Z,82.92
2023-01-23T07:14:45.178Z,82.11
2023-01-23T07:17:13.421Z,81.67
2023-01-23T07:19:41.281Z,79.66
2023-01-23T07:22:09.853Z,79.77
2023-01-23T07:24:37.829Z,78.67
2023-01-23T07:27:05.461Z,77.67
2023-01-23T07:29:33.166Z,78.09
2023-01-23T07:32:01.277Z,77.46
2023-01-23T07:34:28.977Z,77.53
2023-01-23T07:36:56.585Z,77.24
2023-01-23T07:39:24.689Z,76.83
2023-01-23T07:41:52.424Z,76.41
2023-01-23T07:44:21.630Z,78.77
2023-01-23T07:46:50.151Z,78.02
2023-01-23T07:49:18.088Z,77.03
2023-01-23T07:51:45.708Z,75.91
2023-01-23T07:54:13.766Z,75.62
2023-01-23T07:56:41.438Z,74.91
2023-01-23T07:59:09.048Z,75.62
2023-01-23T08:01:38.067Z,75.47
2023-01-23T08:04:06.157Z,75.25
2023-01-23T08:06:34.540Z,75.54
2023-01-23T08:09:03.359Z,75.43
2023-01-23T08:11:34.152Z,74.54
2023-01-23T08:14:02.256Z,74.63
2023-01-23T08:16:29.952Z,74.60
2023-01-23T08:18:58.220Z,74.53
2023-01-23T08:21:25.819Z,73.93
2023-01-23T08:23:53.514Z,73.82
2023-01-23T08:26:24.259Z,73.69
2023-01-23T08:28:51.876Z,73.81
2023-01-23T08:31:19.898Z,73.95
2023-01-23T08:33:47.937Z,73.78
2023-01-23T08:36:15.591Z,73.72
2023-01-23T08:38:43.558Z,73.37
2023-01-23T08:41:14.663Z,72.71
2023-01-23T08:43:42.493Z,73.12
2023-01-23T08:46:11.301Z,72.45
2023-01-23T08:48:39.486Z,73.15
2023-01-23T08:51:10.262Z,71.86
2023-01-23T08:53:37.989Z,71.51
2023-01-23T08:56:17.838Z,71.73
2023-01-23T08:58:46.724Z,71.58
2023-01-23T09:01:17.929Z,71.63
2023-01-23T09:03:45.933Z,71.62
2023-01-23T09:06:16.765Z,71.51
2023-01-23T09:08:44.934Z,71.60
2023-01-23T09:11:14.369Z,71.86
2023-01-23T09:13:43.487Z,71.59
2023-01-23T09:16:11.238Z,70.78
2023-01-23T09:18:38.867Z,70.98
2023-01-23T09:21:10.315Z,70.88
2023-01-23T09:23:38.363Z,70.84
2023-01-23T09:26:11.357Z,70.81
2023-01-23T09:28:42.094Z,70.85
2023-01-23T09:31:13.105Z,70.92
2023-01-23T09:33:41.633Z,70.61
2023-01-23T09:36:10.090Z,70.32
2023-01-23T09:38:38.132Z,70.46
2023-01-23T09:41:19.161Z,70.16
2023-01-23T09:44:07.430Z,69.84
2023-01-23T09:46:46.866Z,69.77
2023-01-23T09:49:38.041Z,69.01
2023-01-23T09:52:12.131Z,69.63
2023-01-23T09:54:58.249Z,68.91
2023-01-23T09:57:33.479Z,68.52
2023-01-23T10:00:20.920Z,68.39
2023-01-23T10:02:49.038Z,68.80
2023-01-23T10:05:18.485Z,68.38
2023-01-23T10:08:17.694Z,68.92
2023-01-23T10:10:48.407Z,68.70
2023-01-23T10:13:19.970Z,68.85
2023-01-23T10:16:02.965Z,68.74
2023-01-23T10:18:40.935Z,68.56
2023-01-23T10:21:22.441Z,69.36
2023-01-23T10:24:21.889Z,69.48
2023-01-23T10:26:51.013Z,68.93
2023-01-23T10:29:28.764Z,68.88
2023-01-23T10:32:01.443Z,68.48
2023-01-23T10:34:37.141Z,67.89
2023-01-23T10:37:20.773Z,69.35
2023-01-23T10:40:03.986Z,68.73
2023-01-23T10:42:34.019Z,68.14
2023-01-23T10:45:01.973Z,66.22
2023-01-23T10:47:38.792Z,66.61
2023-01-23T10:50:11.643Z,65.55
2023-01-23T10:52:44.958Z,66.47
2023-01-23T10:55:19.781Z,66.55
2023-01-23T10:57:50.066Z,67.36
2023-01-23T11:00:24.887Z,66.73
2023-01-23T11:02:52.700Z,66.78
2023-01-23T11:05:51.883Z,67.18
2023-01-23T11:08:36.542Z,66.80
2023-01-23T11:11:16.889Z,66.35
2023-01-23T11:13:46.945Z,67.27
2023-01-23T11:16:17.040Z,68.19
2023-01-23T11:19:02.895Z,66.29
2023-01-23T11:21:51.986Z,66.52
2023-01-23T11:24:38.657Z,65.36
2023-01-23T11:27:28.350Z,66.41
2023-01-23T11:30:10.023Z,65.68
2023-01-23T11:32:51.297Z,67.88
2023-01-23T11:35:25.344Z,65.37
2023-01-23T11:37:55.535Z,65.53
2023-01-23T11:40:23.932Z,65.38
2023-01-23T11:42:52.718Z,66.01
2023-01-23T11:45:44.784Z,67.16
2023-01-23T11:48:32.917Z,66.59
2023-01-23T11:51:45.997Z,65.27
2023-01-23T11:54:41.501Z,64.85
2023-01-23T11:57:33.954Z,66.31
2023-01-23T12:00:19.055Z,66.43
2023-01-23T12:02:52.781Z,66.15
2023-01-23T12:05:26.231Z,66.50
2023-01-23T12:08:09.868Z,65.93
2023-01-23T12:11:13.899Z,66.37
2023-01-23T12:14:04.766Z,66.93
2023-01-23T12:17:09.162Z,68.74
2023-01-23T12:20:01.901Z,67.08
2023-01-23T12:22:48.577Z,67.48
2023-01-23T12:25:16.418Z,67.63
2023-01-23T12:27:47.072Z,67.12
2023-01-23T12:30:28.574Z,68.42
2023-01-23T12:33:35.044Z,67.10
2023-01-23T12:36:24.243Z,67.39
2023-01-23T12:39:01.497Z,67.74
2023-01-23T12:41:39.146Z,67.10
2023-01-23T12:44:24.807Z,67.30
2023-01-23T12:47:04.862Z,67.40
2023-01-23T12:49:45.987Z,66.68
2023-01-23T12:52:25.908Z,66.16
2023-01-23T12:55:04.647Z,67.10
2023-01-23T12:58:00.130Z,67.04
2023-01-23T13:00:44.868Z,66.58
2023-01-23T13:03:44.882Z,68.11
2023-01-23T13:06:41.086Z,67.02
2023-01-23T13:09:44.566Z,67.21
2023-01-23T13:12:31.148Z,67.83
2023-01-23T13:15:18.899Z,68.37
2023-01-23T13:18:22.753Z,69.58
2023-01-23T13:21:17.336Z,68.67
2023-01-23T13:23:45.969Z,68.31
2023-01-23T13:26:13.576Z,68.74
2023-01-23T13:28:48.705Z,69.55
2023-01-23T13:31:46.340Z,69.65
2023-01-23T13:34:16.979Z,68.85
2023-01-23T13:36:46.742Z,69.15
2023-01-23T13:39:17.401Z,69.76
2023-01-23T13:41:49.917Z,71.44
2023-01-23T13:44:41.515Z,70.44
2023-01-23T14:22:39.483Z,71.52
2023-01-23T14:25:17.237Z,73.29
2023-01-23T14:27:54.696Z,72.29
2023-01-23T14:30:27.124Z,72.08
2023-01-23T14:32:55.600Z,72.75
2023-01-23T14:35:31.445Z,72.55
2023-01-23T14:38:02.480Z,72.43
2023-01-23T14:40:39.996Z,73.39
2023-01-23T14:43:24.670Z,72.83
2023-01-23T14:46:12.468Z,73.10
2023-01-23T14:48:42.713Z,72.99
2023-01-23T14:51:24.078Z,74.61
2023-01-23T14:53:56.011Z,73.50
2023-01-23T14:56:39.368Z,72.77
2023-01-23T14:59:27.779Z,73.33
2023-01-23T15:02:03.311Z,74.09
2023-01-23T15:04:33.223Z,73.20
2023-01-23T15:07:02.617Z,73.33
2023-01-23T15:09:37.002Z,73.22
2023-01-23T15:12:07.577Z,73.79
2023-01-23T15:14:40.053Z,74.09
2023-01-23T15:17:17.476Z,73.82
2023-01-23T15:19:51.083Z,74.44
2023-01-23T15:22:25.253Z,73.62
2023-01-23T15:24:53.124Z,72.91
2023-01-23T15:27:37.322Z,73.55
2023-01-23T15:30:35.884Z,74.35
2023-01-23T15:33:10.325Z,73.25
2023-01-23T15:35:38.189Z,74.75
2023-01-23T15:38:08.626Z,74.72
2023-01-23T15:40:38.729Z,73.67
2023-01-23T15:43:17.668Z,75.27
2023-01-23T15:45:45.865Z,73.55
2023-01-23T15:48:13.758Z,74.02
2023-01-23T15:50:41.750Z,74.58
2023-01-23T15:53:12.610Z,74.38
2023-01-23T15:55:41.028Z,75.26
2023-01-23T15:58:15.305Z,74.97
2023-01-23T16:00:43.372Z,74.85
2023-01-23T16:03:14.576Z,74.85
2023-01-23T16:05:42.590Z,75.04
2023-01-23T16:08:25.360Z,75.45
2023-01-23T16:10:53.448Z,75.43
2023-01-23T16:13:21.112Z,75.69
2023-01-23T16:15:49.170Z,74.52
2023-01-23T16:18:20.205Z,74.91
2023-01-23T16:20:47.965Z,74.98
2023-01-23T16:23:20.097Z,74.58
2023-01-23T16:25:48.372Z,76.17
2023-01-23T16:28:19.865Z,75.51
2023-01-23T16:30:49.785Z,74.99
2023-01-23T16:33:17.981Z,74.88
2023-01-23T16:35:46.153Z,77.71
2023-01-23T16:38:26.530Z,77.45
2023-01-23T16:40:56.709Z,75.93
2023-01-23T16:43:24.632Z,75.69
2023-01-23T16:45:56.093Z,76.57
2023-01-23T16:48:27.477Z,76.12
2023-01-23T16:51:03.470Z,75.26
2023-01-23T16:53:34.846Z,75.89
2023-01-23T16:56:04.220Z,75.64
2023-01-23T16:58:37.831Z,75.68
2023-01-23T17:01:15.456Z,74.89
2023-01-23T17:03:44.921Z,76.14
2023-01-23T17:06:14.662Z,75.71
2023-01-23T17:08:42.838Z,77.22
2023-01-23T17:11:18.835Z,76.66
2023-01-23T17:13:47.554Z,76.77
2023-01-23T17:16:26.772Z,76.00
2023-01-23T17:18:58.992Z,76.14
2023-01-23T17:21:33.239Z,75.38
2023-01-23T17:24:01.085Z,75.16
2023-01-23T17:26:29.377Z,76.14
2023-01-23T17:29:00.533Z,75.32
2023-01-23T17:31:29.252Z,75.56
2023-01-23T17:33:57.337Z,75.51
2023-01-23T17:36:26.403Z,75.88
2023-01-23T17:38:59.127Z,75.00
2023-01-23T17:41:28.660Z,75.56
2023-01-23T17:43:56.482Z,76.24
2023-01-23T17:46:27.190Z,77.48
2023-01-23T17:48:56.198Z,76.27
2023-01-23T17:51:25.580Z,75.41
2023-01-23T17:53:53.537Z,75.12
2023-01-23T17:56:21.699Z,75.38
2023-01-23T17:58:49.649Z,75.57
2023-01-23T18:01:23.816Z,76.40
2023-01-23T18:03:53.246Z,75.30
2023-01-23T18:06:21.228Z,76.42
2023-01-23T18:08:49.224Z,76.32
2023-01-23T18:11:22.256Z,75.83
2023-01-23T18:13:50.099Z,76.13
2023-01-23T18:16:31.299Z,76.15
2023-01-23T18:19:03.747Z,76.18
2023-01-23T18:21:32.813Z,76.58
2023-01-23T18:24:00.785Z,76.48
2023-01-23T18:26:49.137Z,76.22
2023-01-23T18:29:17.568Z,75.94
2023-01-23T18:31:50.402Z,75.83
2023-01-23T18:34:31.169Z,75.98
2023-01-23T18:37:14.048Z,75.83
2023-01-23T18:39:49.252Z,76.11
2023-01-23T18:42:24.326Z,76.61
2023-01-23T18:45:01.793Z,77.36
2023-01-23T18:47:29.754Z,76.84
2023-01-23T18:49:58.399Z,76.66
2023-01-23T18:52:38.510Z,76.79
2023-01-23T18:55:28.582Z,76.85
2023-01-23T18:58:25.868Z,76.32
2023-01-23T19:01:15.020Z,76.93
2023-01-23T19:03:44.948Z,76.62
2023-01-23T19:06:23.363Z,76.57
2023-01-23T19:08:54.212Z,77.13
2023-01-23T19:11:46.452Z,78.04
2023-01-23T19:14:51.147Z,77.87
2023-01-23T19:17:39.708Z,78.46
2023-01-23T19:20:26.348Z,77.52
2023-01-23T19:23:09.745Z,77.46
2023-01-23T19:25:45.483Z,77.10
2023-01-23T19:28:15.147Z,77.06
2023-01-23T19:30:44.114Z,76.41
2023-01-23T19:33:17.014Z,75.97
2023-01-23T19:35:46.932Z,76.48
2023-01-23T19:38:17.605Z,77.29
2023-01-23T19:40:46.272Z,77.05
2023-01-23T19:43:16.846Z,77.23
2023-01-23T19:45:46.024Z,77.32
2023-01-23T19:48:14.113Z,76.89
2023-01-23T19:50:42.019Z,77.02
2023-01-23T19:53:13.353Z,76.52
2023-01-23T19:55:41.098Z,77.28
2023-01-23T19:58:10.248Z,76.76
2023-01-23T20:00:39.332Z,76.37
2023-01-23T20:03:10.075Z,76.57
2023-01-23T20:05:37.775Z,76.97
2023-01-23T20:08:06.348Z,77.22
2023-01-23T20:10:35.429Z,77.18
2023-01-23T20:13:03.474Z,77.91
2023-01-23T20:15:31.430Z,77.26
2023-01-23T20:17:59.598Z,76.59
2023-01-23T20:20:29.200Z,76.78
2023-01-23T20:22:56.829Z,76.87
2023-01-23T20:25:25.035Z,76.80
2023-01-23T20:27:52.856Z,76.11
2023-01-23T20:30:21.993Z,76.53
2023-01-23T20:32:50.680Z,77.17
2023-01-23T20:35:18.587Z,76.43
2023-01-23T20:37:46.292Z,76.31
2023-01-23T20:40:14.937Z,76.38
2023-01-23T20:42:42.676Z,76.40
2023-01-23T20:45:10.558Z,76.24
2023-01-23T20:47:40.896Z,78.18
2023-01-23T20:50:09.787Z,77.12
2023-01-23T20:52:56.735Z,76.96
2023-01-23T20:55:25.166Z,76.61
2023-01-23T20:58:12.008Z,76.61
2023-01-23T21:00:40.254Z,76.86
2023-01-23T21:03:07.967Z,76.28
2023-01-23T21:05:35.870Z,76.53
2023-01-23T21:08:04.258Z,76.88
2023-01-23T21:10:32.234Z,76.61
2023-01-23T21:13:00.067Z,75.77
2023-01-23T21:15:28.133Z,75.94
2023-01-23T21:17:55.784Z,75.99
2023-01-23T21:20:23.724Z,75.99
2023-01-23T21:22:51.925Z,75.56
2023-01-23T21:25:19.974Z,75.03
2023-01-23T21:27:48.097Z,75.77
2023-01-23T21:30:16.478Z,75.03
2023-01-23T21:32:44.741Z,75.41
2023-01-23T21:35:12.362Z,74.97
2023-01-23T21:37:42.417Z,75.20
2023-01-23T21:40:10.677Z,74.72
2023-01-23T21:42:38.500Z,74.67
2023-01-23T21:45:06.812Z,74.46
2023-01-23T21:47:34.379Z,74.69
2023-01-23T21:50:02.734Z,74.60
2023-01-23T21:52:31.106Z,74.61
2023-01-23T21:54:58.709Z,74.24
2023-01-23T21:57:26.315Z,74.45
2023-01-23T22:00:13.890Z,74.26
2023-01-23T22:02:41.938Z,73.98
2023-01-23T22:05:10.052Z,73.70
2023-01-23T22:07:37.804Z,74.00
2023-01-23T22:10:06.399Z,73.28
2023-01-23T22:12:36.764Z,73.73
2023-01-23T22:15:05.262Z,73.33
2023-01-23T22:17:34.133Z,73.12
2023-01-23T22:20:02.235Z,72.77
2023-01-23T22:22:29.862Z,72.39
2023-01-23T22:24:57.825Z,71.97
2023-01-23T22:27:25.552Z,72.17
2023-01-23T22:29:53.398Z,72.49
2023-01-23T22:32:21.658Z,72.60
2023-01-23T22:34:49.404Z,72.88
2023-01-23T22:37:21.445Z,72.42
2023-01-23T22:39:50.224Z,72.01
2023-01-23T22:42:19.198Z,72.65
2023-01-23T22:44:46.796Z,72.58
2023-01-23T22:47:14.814Z,73.57
2023-01-23T22:49:44.008Z,73.10
2023-01-23T22:52:11.552Z,72.94
2023-01-23T22:54:39.494Z,73.19
2023-01-23T22:57:07.219Z,72.28
2023-01-23T22:59:34.826Z,71.52
2023-01-23T23:02:02.856Z,72.53
2023-01-23T23:04:30.545Z,73.01
2023-01-23T23:06:58.231Z,72.67
2023-01-23T23:09:26.287Z,72.18
2023-01-23T23:11:54.279Z,72.28
2023-01-23T23:14:21.897Z,72.04
2023-01-23T23:16:49.928Z,71.78
2023-01-23T23:19:17.606Z,73.29
2023-01-23T23:21:45.596Z,73.09
2023-01-23T23:24:14.117Z,72.70
2023-01-23T23:26:42.056Z,72.86
2023-01-23T23:29:09.777Z,73.24
2023-01-23T23:31:37.939Z,72.29
2023-01-23T23:34:05.666Z,72.01
2023-01-23T23:36:33.707Z,72.24
2023-01-23T23:39:01.863Z,72.56
2023-01-23T23:41:29.585Z,73.72
2023-01-23T23:43:57.328Z,72.10
2023-01-23T23:46:25.466Z,71.40
2023-01-23T23:48:53.313Z,71.10
2023-01-23T23:51:22.892Z,71.36
2023-01-23T23:53:50.906Z,72.06
2023-01-23T23:56:29.039Z,71.31
2023-01-23T23:58:57.113Z,70.96
